createdAt,value
2023-02-07T00:01:24.845Z,-7.18
2023-02-07T00:04:26.817Z,-7.21
2023-02-07T00:07:28.697Z,-7.28
2023-02-07T00:10:31.284Z,-7.32
2023-02-07T00:13:33.226Z,-7.34
2023-02-07T00:16:35.148Z,-7.36
2023-02-07T00:19:37.209Z,-7.42
2023-02-07T00:22:39.097Z,-7.49
2023-02-07T00:25:41.139Z,-7.53
2023-02-07T00:28:43.562Z,-7.53
2023-02-07T00:31:45.888Z,-7.58
2023-02-07T00:34:50.673Z,-7.54
2023-02-07T00:37:52.953Z,-7.52
2023-02-07T00:40:54.928Z,-7.51
2023-02-07T00:43:56.979Z,-7.55
2023-02-07T00:46:59.539Z,-7.54
2023-02-07T00:50:01.475Z,-7.53
2023-02-07T00:53:04.279Z,-7.55
2023-02-07T00:56:07.191Z,-7.60
2023-02-07T00:59:09.053Z,-7.66
2023-02-07T01:02:11.084Z,-7.68
2023-02-07T01:05:12.985Z,-7.71
2023-02-07T01:11:50.448Z,-7.78
2023-02-07T01:14:52.526Z,-7.84
2023-02-07T01:17:54.492Z,-7.87
2023-02-07T01:21:28.417Z,-7.93
2023-02-07T01:24:31.058Z,-7.92
2023-02-07T01:27:35.860Z,-7.95
2023-02-07T01:35:16.704Z,-7.92
2023-02-07T01:38:18.682Z,-7.91
2023-02-07T01:41:22.237Z,-7.88
2023-02-07T01:44:24.080Z,-7.83
2023-02-07T01:47:26.564Z,-7.82
2023-02-07T01:50:28.737Z,-7.69
2023-02-07T01:53:33.601Z,-7.63
2023-02-07T01:56:41.338Z,-7.51
2023-02-07T01:59:44.542Z,-7.55
2023-02-07T02:02:47.617Z,-7.57
2023-02-07T02:05:52.244Z,-7.52
2023-02-07T02:08:59.549Z,-7.49
2023-02-07T02:12:20.542Z,-7.48
2023-02-07T02:15:38.421Z,-7.51
2023-02-07T02:18:52.097Z,-7.55
2023-02-07T02:22:09.298Z,-7.58
2023-02-07T02:25:29.467Z,-7.60
2023-02-07T02:29:13.284Z,-7.64
2023-02-07T02:32:46.229Z,-7.68
2023-02-07T02:35:57.854Z,-7.72
2023-02-07T02:39:15.419Z,-7.66
2023-02-07T02:42:25.941Z,-7.61
2023-02-07T02:45:33.218Z,-7.54
2023-02-07T02:48:36.279Z,-7.52
2023-02-07T02:51:38.422Z,-7.48
2023-02-07T02:54:41.232Z,-7.44
2023-02-07T02:58:21.635Z,-7.44
2023-02-07T03:01:44.771Z,-7.42
2023-02-07T03:05:14.255Z,-7.39
2023-02-07T03:08:25.046Z,-7.45
2023-02-07T03:11:33.942Z,-7.36
2023-02-07T03:14:46.196Z,-7.28
2023-02-07T03:18:01.675Z,-7.23
2023-02-07T03:21:10.742Z,-7.21
2023-02-07T03:24:18.632Z,-7.16
2023-02-07T03:27:24.238Z,-7.14
2023-02-07T03:30:33.278Z,-7.05
2023-02-07T03:33:36.129Z,-7.08
2023-02-07T03:36:57.250Z,-7.09
2023-02-07T03:39:59.389Z,-7.04
2023-02-07T03:43:07.657Z,-7.05
2023-02-07T03:46:10.766Z,-7.04
2023-02-07T03:49:14.893Z,-6.99
2023-02-07T03:52:16.842Z,-7.00
2023-02-07T03:55:19.241Z,-6.93
2023-02-07T03:58:21.228Z,-6.95
2023-02-07T04:01:23.535Z,-6.95
2023-02-07T04:04:25.516Z,-6.95
2023-02-07T04:07:27.449Z,-6.93
2023-02-07T04:10:29.437Z,-6.85
2023-02-07T04:13:31.335Z,-6.82
2023-02-07T04:16:33.270Z,-6.84
2023-02-07T04:19:35.250Z,-6.85
2023-02-07T04:22:37.133Z,-6.81
2023-02-07T04:25:40.196Z,-6.84
2023-02-07T04:28:42.384Z,-6.90
2023-02-07T04:31:44.438Z,-6.88
2023-02-07T04:34:46.470Z,-6.89
2023-02-07T04:37:48.370Z,-6.93
2023-02-07T04:40:50.350Z,-6.99
2023-02-07T04:43:52.492Z,-7.03
2023-02-07T04:46:54.365Z,-7.05
2023-02-07T04:49:56.239Z,-7.08
2023-02-07T04:52:58.203Z,-7.18
2023-02-07T04:56:00.113Z,-7.17
2023-02-07T04:59:02.097Z,-7.25
2023-02-07T05:02:04.127Z,-7.31
2023-02-07T05:05:06.445Z,-7.35
2023-02-07T05:08:08.804Z,-7.36
2023-02-07T05:11:10.938Z,-7.45
2023-02-07T05:14:12.786Z,-7.39
2023-02-07T05:17:14.709Z,-7.41
2023-02-07T05:20:16.872Z,-7.46
2023-02-07T05:23:18.732Z,-7.43
2023-02-07T05:26:20.674Z,-7.45
2023-02-07T05:29:22.589Z,-7.44
2023-02-07T05:32:43.210Z,-7.50
2023-02-07T05:35:46.354Z,-7.51
2023-02-07T05:38:48.278Z,-7.50
2023-02-07T05:41:50.195Z,-7.49
2023-02-07T05:44:52.136Z,-7.49
2023-02-07T05:47:54.470Z,-7.49
2023-02-07T05:50:56.463Z,-7.46
2023-02-07T05:53:58.385Z,-7.43
2023-02-07T05:57:00.340Z,-7.36
2023-02-07T06:00:02.563Z,-7.35
2023-02-07T06:03:13.642Z,-7.39
2023-02-07T06:06:15.565Z,-7.40
2023-02-07T06:09:17.540Z,-7.37
2023-02-07T06:12:19.475Z,-7.32
2023-02-07T06:15:21.313Z,-7.37
2023-02-07T06:18:23.298Z,-7.39
2023-02-07T06:21:31.957Z,-7.35
2023-02-07T06:24:39.747Z,-7.23
2023-02-07T06:27:42.075Z,-7.25
2023-02-07T06:30:44.076Z,-7.28
2023-02-07T06:33:46.100Z,-7.11
2023-02-07T06:36:48.047Z,-7.13
2023-02-07T06:39:50.004Z,-7.18
2023-02-07T06:42:51.972Z,-7.15
2023-02-07T06:45:53.817Z,-7.07
2023-02-07T06:48:55.648Z,-7.10
2023-02-07T06:51:57.561Z,-7.10
2023-02-07T06:54:59.510Z,-6.98
2023-02-07T06:58:01.429Z,-6.99
2023-02-07T07:01:04.908Z,-6.89
2023-02-07T07:04:06.855Z,-6.80
2023-02-07T07:07:09.032Z,-6.77
2023-02-07T07:10:11.438Z,-6.71
2023-02-07T07:13:13.388Z,-6.65
2023-02-07T07:16:15.386Z,-6.66
2023-02-07T07:19:17.331Z,-6.60
2023-02-07T07:22:21.179Z,-6.57
2023-02-07T07:25:23.834Z,-6.45
2023-02-07T07:28:25.817Z,-6.40
2023-02-07T07:31:27.971Z,-6.44
2023-02-07T07:34:29.942Z,-6.26
2023-02-07T07:37:32.631Z,-6.15
2023-02-07T07:40:34.639Z,-5.94
2023-02-07T07:43:36.498Z,-5.77
2023-02-07T07:46:38.454Z,-5.95
2023-02-07T07:49:40.757Z,-5.91
2023-02-07T07:52:43.162Z,-5.89
2023-02-07T07:55:56.522Z,-5.81
2023-02-07T07:58:59.547Z,-5.83
2023-02-07T08:02:02.290Z,-5.70
2023-02-07T08:05:04.554Z,-5.66
2023-02-07T08:08:06.728Z,-5.55
2023-02-07T08:11:10.454Z,-5.32
2023-02-07T08:14:12.386Z,-5.22
2023-02-07T08:17:14.399Z,-5.12
2023-02-07T08:20:16.504Z,-5.24
2023-02-07T08:23:18.422Z,-5.23
2023-02-07T08:26:20.507Z,-5.17
2023-02-07T08:29:22.527Z,-5.40
2023-02-07T08:32:24.496Z,-5.49
2023-02-07T08:35:26.696Z,-5.37
2023-02-07T08:38:28.631Z,-5.38
2023-02-07T08:41:30.895Z,-5.21
2023-02-07T08:44:33.211Z,-5.01
2023-02-07T08:47:35.261Z,-4.63
2023-02-07T08:50:37.683Z,-4.39
2023-02-07T08:53:39.789Z,-4.29
2023-02-07T08:56:41.750Z,-4.37
2023-02-07T08:59:44.939Z,-4.20
2023-02-07T09:02:46.898Z,-3.98
2023-02-07T09:05:48.807Z,-3.75
2023-02-07T09:08:51.067Z,-3.77
2023-02-07T09:11:52.958Z,-4.06
2023-02-07T09:14:54.815Z,-3.68
2023-02-07T09:17:56.792Z,-3.32
2023-02-07T09:20:58.663Z,-3.38
2023-02-07T09:24:00.708Z,-3.28
2023-02-07T09:27:02.757Z,-3.13
2023-02-07T09:30:05.839Z,-3.16
2023-02-07T09:33:07.763Z,-3.11
2023-02-07T09:36:25.248Z,-3.37
2023-02-07T09:39:27.318Z,-3.38
2023-02-07T09:42:41.993Z,-3.30
2023-02-07T09:45:47.924Z,-3.17
2023-02-07T09:48:59.300Z,-2.95
2023-02-07T09:52:03.980Z,-2.94
2023-02-07T09:55:15.479Z,-2.91
2023-02-07T09:58:45.697Z,-2.75
2023-02-07T10:01:51.858Z,-2.96
2023-02-07T10:04:58.778Z,-3.02
2023-02-07T10:08:01.017Z,-2.94
2023-02-07T10:11:18.228Z,-2.87
2023-02-07T10:14:45.076Z,-2.92
2023-02-07T10:18:02.151Z,-2.95
2023-02-07T10:21:27.348Z,-2.89
2023-02-07T10:24:42.735Z,-3.13
2023-02-07T10:27:54.149Z,-3.26
2023-02-07T10:31:00.824Z,-3.57
2023-02-07T10:34:14.918Z,-3.46
2023-02-07T10:37:23.257Z,-3.48
2023-02-07T10:40:30.714Z,-3.50
2023-02-07T10:43:34.535Z,-3.65
2023-02-07T10:46:38.033Z,-3.62
2023-02-07T10:49:40.118Z,-3.64
2023-02-07T10:52:56.260Z,-3.58
2023-02-07T10:55:58.197Z,-3.49
2023-02-07T10:59:00.575Z,-3.70
2023-02-07T11:02:28.319Z,-3.53
2023-02-07T11:05:34.519Z,-3.65
2023-02-07T11:08:38.341Z,-3.82
2023-02-07T11:11:41.777Z,-3.86
2023-02-07T11:15:01.543Z,-4.10
2023-02-07T11:18:04.741Z,-3.93
2023-02-07T11:21:31.308Z,-4.00
2023-02-07T11:24:36.604Z,-4.06
2023-02-07T11:27:42.315Z,-4.11
2023-02-07T11:30:44.498Z,-4.01
2023-02-07T11:33:47.908Z,-4.02
2023-02-07T11:36:49.815Z,-3.95
2023-02-07T11:40:09.103Z,-3.88
2023-02-07T11:43:23.003Z,-3.80
2023-02-07T11:46:34.649Z,-3.58
2023-02-07T11:49:48.221Z,-3.60
2023-02-07T11:52:56.223Z,-3.80
2023-02-07T11:55:58.456Z,-3.88
2023-02-07T11:59:06.281Z,-3.88
2023-02-07T12:02:20.353Z,-3.86
2023-02-07T12:05:27.231Z,-3.88
2023-02-07T12:08:35.439Z,-3.92
2023-02-07T12:11:41.057Z,-3.80
2023-02-07T12:14:54.869Z,-3.95
2023-02-07T12:18:05.985Z,-4.03
2023-02-07T12:21:23.987Z,-4.21
2023-02-07T12:24:55.012Z,-4.28
2023-02-07T12:28:01.173Z,-4.35
2023-02-07T12:31:28.471Z,-4.34
2023-02-07T12:34:54.553Z,-4.33
2023-02-07T12:38:25.586Z,-4.31
2023-02-07T12:41:41.536Z,-4.48
2023-02-07T12:44:51.359Z,-4.58
2023-02-07T12:48:06.818Z,-4.57
2023-02-07T12:51:33.506Z,-4.53
2023-02-07T12:54:50.625Z,-4.62
2023-02-07T12:58:04.470Z,-4.75
2023-02-07T13:01:36.308Z,-4.87
2023-02-07T13:04:53.494Z,-4.90
2023-02-07T13:08:17.902Z,-4.91
2023-02-07T13:11:50.602Z,-5.05
2023-02-07T13:15:07.334Z,-5.10
2023-02-07T13:18:18.459Z,-5.10
2023-02-07T13:21:38.526Z,-5.06
2023-02-07T13:24:42.649Z,-5.16
2023-02-07T13:27:45.618Z,-5.26
2023-02-07T13:30:48.362Z,-5.46
2023-02-07T13:33:52.484Z,-5.49
2023-02-07T13:36:55.290Z,-5.48
2023-02-07T13:40:00.784Z,-5.62
2023-02-07T13:43:29.980Z,-5.61
2023-02-07T13:46:55.814Z,-5.74
2023-02-07T13:50:17.403Z,-5.68
2023-02-07T13:53:25.438Z,-5.73
2023-02-07T13:56:54.098Z,-5.77
2023-02-07T14:00:12.148Z,-5.77
2023-02-07T14:03:23.540Z,-5.91
2023-02-07T14:06:27.691Z,-5.87
2023-02-07T14:09:42.654Z,-5.91
2023-02-07T14:12:49.149Z,-6.00
2023-02-07T14:15:54.177Z,-6.02
2023-02-07T14:18:56.169Z,-6.09
2023-02-07T14:22:18.774Z,-6.11
2023-02-07T14:25:41.432Z,-6.23
2023-02-07T14:28:46.285Z,-6.24
2023-02-07T14:31:56.443Z,-6.23
2023-02-07T14:35:09.025Z,-6.38
2023-02-07T14:38:31.858Z,-6.40
2023-02-07T14:41:37.634Z,-6.48
2023-02-07T14:44:42.774Z,-6.49
2023-02-07T14:47:44.890Z,-6.52
2023-02-07T14:50:52.700Z,-6.55
2023-02-07T14:54:06.570Z,-6.63
2023-02-07T14:57:58.720Z,-6.56
2023-02-07T15:01:00.785Z,-6.64
2023-02-07T15:04:05.619Z,-6.62
2023-02-07T15:07:12.815Z,-6.71
2023-02-07T15:10:15.995Z,-6.77
2023-02-07T15:13:25.875Z,-6.82
2023-02-07T15:16:31.216Z,-6.85
2023-02-07T15:19:35.814Z,-6.87
2023-02-07T15:22:37.813Z,-6.93
2023-02-07T15:25:43.140Z,-6.91
2023-02-07T15:28:45.173Z,-6.98
2023-02-07T15:31:47.296Z,-6.95
2023-02-07T15:34:49.402Z,-7.01
2023-02-07T15:37:51.356Z,-7.04
2023-02-07T15:40:54.338Z,-7.05
2023-02-07T15:43:58.497Z,-7.11
2023-02-07T15:47:06.202Z,-7.15
2023-02-07T15:50:24.324Z,-7.16
2023-02-07T15:53:29.459Z,-7.25
2023-02-07T15:56:31.522Z,-7.24
2023-02-07T15:59:36.908Z,-7.32
2023-02-07T16:02:43.001Z,-7.36
2023-02-07T16:05:45.146Z,-7.39
2023-02-07T16:08:52.254Z,-7.45
2023-02-07T16:11:54.284Z,-7.52
2023-02-07T16:14:56.426Z,-7.52
2023-02-07T16:17:59.301Z,-7.58
2023-02-07T16:21:02.857Z,-7.67
2023-02-07T16:24:09.566Z,-7.70
2023-02-07T16:27:30.320Z,-7.72
2023-02-07T16:30:35.393Z,-7.81
2023-02-07T16:33:39.893Z,-7.80
2023-02-07T16:36:42.884Z,-7.75
2023-02-07T16:39:44.624Z,-7.82
2023-02-07T16:42:46.719Z,-7.88
2023-02-07T16:45:48.613Z,-7.95
2023-02-07T16:48:51.196Z,-7.90
2023-02-07T16:51:53.736Z,-7.91
2023-02-07T16:54:55.786Z,-7.92
2023-02-07T16:57:58.087Z,-7.92
2023-02-07T17:01:01.359Z,-7.98
2023-02-07T17:04:03.304Z,-8.05
2023-02-07T17:07:05.226Z,-8.14
2023-02-07T17:10:21.141Z,-8.21
2023-02-07T17:13:23.177Z,-8.24
2023-02-07T17:16:27.690Z,-8.29
2023-02-07T17:19:29.765Z,-8.36
2023-02-07T17:22:31.651Z,-8.35
2023-02-07T17:25:33.583Z,-8.42
2023-02-07T17:28:35.470Z,-8.41
2023-02-07T17:31:37.394Z,-8.48
2023-02-07T17:34:39.381Z,-8.50
2023-02-07T17:37:41.871Z,-8.49
2023-02-07T17:40:43.818Z,-8.53
2023-02-07T17:43:45.722Z,-8.55
2023-02-07T17:46:47.622Z,-8.59
2023-02-07T17:49:49.570Z,-8.64
2023-02-07T17:52:51.601Z,-8.62
2023-02-07T17:55:53.455Z,-8.65
2023-02-07T17:58:58.254Z,-8.69
2023-02-07T18:02:00.297Z,-8.70
2023-02-07T18:05:02.364Z,-8.71
2023-02-07T18:08:04.461Z,-8.78
2023-02-07T18:11:07.418Z,-8.78
2023-02-07T18:18:23.957Z,-8.85
2023-02-07T18:21:26.551Z,-8.89
2023-02-07T18:24:28.483Z,-8.94
2023-02-07T18:27:31.053Z,-8.94
2023-02-07T18:30:33.617Z,-9.01
2023-02-07T18:33:35.595Z,-9.10
2023-02-07T18:36:40.428Z,-9.07
2023-02-07T18:39:42.697Z,-9.09
2023-02-07T18:42:44.608Z,-9.14
2023-02-07T18:45:46.872Z,-9.20
2023-02-07T18:48:53.519Z,-9.16
2023-02-07T18:51:56.024Z,-9.22
2023-02-07T18:54:58.041Z,-9.22
2023-02-07T18:57:59.965Z,-9.29
2023-02-07T19:01:08.895Z,-9.27
2023-02-07T19:04:11.767Z,-9.30
2023-02-07T19:07:14.014Z,-9.29
2023-02-07T19:10:17.112Z,-9.32
2023-02-07T19:13:19.132Z,-9.33
2023-02-07T19:16:23.361Z,-9.34
2023-02-07T19:19:28.146Z,-9.30
2023-02-07T19:22:35.714Z,-9.28
2023-02-07T19:25:45.877Z,-9.27
2023-02-07T19:28:47.755Z,-9.31
2023-02-07T19:31:49.723Z,-9.31
2023-02-07T19:34:51.655Z,-9.29
2023-02-07T19:37:53.712Z,-9.30
2023-02-07T19:40:56.918Z,-9.33
2023-02-07T19:43:58.880Z,-9.34
2023-02-07T19:47:00.768Z,-9.35
2023-02-07T19:50:02.749Z,-9.38
2023-02-07T19:53:04.713Z,-9.44
2023-02-07T19:56:11.452Z,-9.46
2023-02-07T19:59:13.454Z,-9.40
2023-02-07T20:02:15.391Z,-9.51
2023-02-07T20:05:17.407Z,-9.58
2023-02-07T20:08:21.539Z,-9.54
2023-02-07T20:11:23.587Z,-9.53
2023-02-07T20:14:25.425Z,-9.62
2023-02-07T20:17:28.207Z,-9.59
2023-02-07T20:20:30.101Z,-9.64
2023-02-07T20:23:32.858Z,-9.71
2023-02-07T20:26:38.996Z,-9.76
2023-02-07T20:29:41.033Z,-9.82
2023-02-07T20:32:43.019Z,-9.80
2023-02-07T20:35:47.460Z,-9.83
2023-02-07T20:38:49.494Z,-9.80
2023-02-07T20:41:51.408Z,-9.85
2023-02-07T20:44:53.361Z,-9.87
2023-02-07T20:47:55.350Z,-9.88
2023-02-07T20:50:57.909Z,-9.88
2023-02-07T20:54:01.730Z,-9.92
2023-02-07T20:57:04.312Z,-9.93
2023-02-07T21:00:07.688Z,-9.93
2023-02-07T21:03:09.620Z,-9.92
2023-02-07T21:06:12.727Z,-9.90
2023-02-07T21:09:21.374Z,-9.89
2023-02-07T21:12:23.666Z,-9.93
2023-02-07T21:15:25.566Z,-9.97
2023-02-07T21:18:28.274Z,-9.93
2023-02-07T21:21:30.200Z,-9.91
2023-02-07T21:24:33.009Z,-9.92
2023-02-07T21:27:34.754Z,-9.89
2023-02-07T21:30:37.281Z,-9.90
2023-02-07T21:33:39.337Z,-9.95
2023-02-07T21:36:41.716Z,-9.97
2023-02-07T21:39:43.585Z,-9.99
2023-02-07T21:42:45.573Z,-10.05
2023-02-07T21:45:47.685Z,-10.03
2023-02-07T21:48:52.413Z,-10.02
2023-02-07T21:51:54.415Z,-10.02
2023-02-07T21:54:56.326Z,-10.02
2023-02-07T21:57:58.509Z,-10.06
2023-02-07T22:01:18.443Z,-10.04
2023-02-07T22:04:20.829Z,-10.10
2023-02-07T22:07:22.710Z,-10.10
2023-02-07T22:10:25.145Z,-10.11
2023-02-07T22:13:27.038Z,-10.11
2023-02-07T22:16:30.746Z,-10.16
2023-02-07T22:19:32.638Z,-10.21
2023-02-07T22:22:34.588Z,-10.20
2023-02-07T22:25:40.215Z,-10.19
2023-02-07T22:28:42.455Z,-10.19
2023-02-07T22:31:44.582Z,-10.21
2023-02-07T22:34:46.597Z,-10.24
2023-02-07T22:37:48.545Z,-10.28
2023-02-07T22:40:50.477Z,-10.27
2023-02-07T22:43:52.443Z,-10.31
2023-02-07T22:46:54.334Z,-10.31
2023-02-07T22:49:56.207Z,-10.32
2023-02-07T22:52:58.179Z,-10.41
2023-02-07T22:56:01.982Z,-10.46
2023-02-07T22:59:05.559Z,-10.51
2023-02-07T23:02:07.530Z,-10.53
2023-02-07T23:05:09.654Z,-10.51
2023-02-07T23:08:12.612Z,-10.53
2023-02-07T23:11:16.237Z,-10.52
2023-02-07T23:14:19.109Z,-10.57
2023-02-07T23:17:20.962Z,-10.64
2023-02-07T23:20:23.412Z,-10.67
2023-02-07T23:23:25.293Z,-10.69
2023-02-07T23:26:27.549Z,-10.71
2023-02-07T23:29:29.483Z,-10.74
2023-02-07T23:32:31.906Z,-10.75
2023-02-07T23:35:34.184Z,-10.79
2023-02-07T23:38:36.514Z,-10.76
2023-02-07T23:41:38.764Z,-10.79
2023-02-07T23:44:40.611Z,-10.79
2023-02-07T23:47:42.508Z,-10.82
2023-02-07T23:50:44.683Z,-10.88
2023-02-07T23:53:46.696Z,-10.96
2023-02-07T23:56:48.611Z,-10.97
2023-02-07T23:59:51.504Z,-10.97
